createdAt,value
2022-10-17T00:00:35.100Z,73.70
2022-10-17T00:03:21.825Z,73.79
2022-10-17T00:05:48.559Z,73.87
2022-10-17T00:08:17.430Z,73.89
2022-10-17T00:10:44.792Z,73.77
2022-10-17T00:13:12.032Z,73.69
2022-10-17T00:15:43.870Z,73.61
2022-10-17T00:18:10.664Z,73.65
2022-10-17T00:20:37.272Z,73.68
2022-10-17T00:23:03.941Z,73.64
2022-10-17T00:25:30.633Z,73.87
2022-10-17T00:27:57.364Z,73.74
2022-10-17T00:30:24.004Z,73.82
2022-10-17T00:32:50.970Z,74.00
2022-10-17T00:35:17.650Z,73.86
2022-10-17T00:37:44.223Z,73.76
2022-10-17T00:40:11.309Z,73.77
2022-10-17T00:42:39.548Z,73.77
2022-10-17T00:45:28.618Z,73.69
2022-10-17T00:48:03.299Z,73.84
2022-10-17T00:50:31.349Z,73.77
2022-10-17T00:53:02.178Z,73.68
2022-10-17T00:55:32.572Z,73.54
2022-10-17T00:58:02.881Z,73.53
2022-10-17T01:00:30.007Z,73.55
2022-10-17T01:02:56.686Z,73.53
2022-10-17T01:05:23.343Z,73.63
2022-10-17T01:07:52.349Z,73.73
2022-10-17T01:10:20.284Z,73.74
2022-10-17T01:13:05.763Z,73.74
2022-10-17T01:16:00.294Z,73.60
2022-10-17T01:18:35.956Z,73.63
2022-10-17T01:21:20.369Z,73.34
2022-10-17T01:24:08.968Z,73.52
2022-10-17T01:27:14.115Z,73.73
2022-10-17T01:29:49.475Z,73.61
2022-10-17T01:32:32.409Z,73.73
2022-10-17T01:35:33.935Z,73.70
2022-10-17T01:38:03.521Z,73.68
2022-10-17T01:40:37.701Z,73.66
2022-10-17T01:43:10.853Z,73.63
2022-10-17T01:45:48.502Z,73.65
2022-10-17T01:48:22.096Z,73.61
2022-10-17T01:50:59.210Z,73.62
2022-10-17T01:53:33.940Z,73.55
2022-10-17T01:56:03.963Z,73.36
2022-10-17T01:58:40.684Z,73.52
2022-10-17T02:01:10.717Z,73.42
2022-10-17T02:03:40.747Z,73.29
2022-10-17T02:06:07.415Z,72.67
2022-10-17T02:08:49.487Z,72.53
2022-10-17T02:11:24.305Z,72.72
2022-10-17T02:14:10.053Z,72.94
2022-10-17T02:17:04.652Z,73.31
2022-10-17T02:19:46.293Z,73.56
2022-10-17T02:22:37.267Z,73.87
2022-10-17T02:25:30.939Z,73.85
2022-10-17T02:28:19.663Z,73.95
2022-10-17T02:30:48.996Z,74.03
2022-10-17T02:33:22.538Z,74.03
2022-10-17T02:35:54.005Z,74.07
2022-10-17T02:38:22.391Z,74.08
2022-10-17T02:40:51.711Z,73.99
2022-10-17T02:43:19.607Z,74.08
2022-10-17T02:45:46.938Z,74.10
2022-10-17T02:48:24.760Z,74.09
2022-10-17T02:51:07.120Z,74.16
2022-10-17T02:53:49.438Z,74.21
2022-10-17T02:56:20.731Z,74.16
2022-10-17T02:58:56.437Z,74.22
2022-10-17T03:01:24.422Z,74.29
2022-10-17T03:03:51.369Z,74.34
2022-10-17T03:06:18.054Z,74.31
2022-10-17T03:08:44.667Z,74.24
2022-10-17T03:11:11.396Z,74.23
2022-10-17T03:13:39.831Z,74.18
2022-10-17T03:16:06.861Z,74.05
2022-10-17T03:18:33.752Z,74.14
2022-10-17T03:21:00.438Z,74.10
2022-10-17T03:23:27.056Z,74.18
2022-10-17T03:25:54.171Z,74.21
2022-10-17T03:28:20.835Z,74.17
2022-10-17T03:30:47.499Z,74.17
2022-10-17T03:33:14.119Z,74.13
2022-10-17T03:35:40.825Z,74.21
2022-10-17T03:38:07.466Z,74.20
2022-10-17T03:40:34.093Z,74.16
2022-10-17T03:43:00.765Z,74.11
2022-10-17T03:45:27.931Z,74.10
2022-10-17T03:47:54.568Z,74.05
2022-10-17T03:50:21.290Z,74.03
2022-10-17T03:52:49.043Z,74.00
2022-10-17T03:55:16.494Z,74.07
2022-10-17T03:57:45.430Z,74.07
2022-10-17T04:00:12.783Z,74.08
2022-10-17T04:02:39.377Z,74.17
2022-10-17T04:05:06.857Z,73.97
2022-10-17T04:07:33.465Z,74.10
2022-10-17T04:10:00.056Z,74.23
2022-10-17T04:12:27.032Z,74.22
2022-10-17T04:14:54.067Z,74.22
2022-10-17T04:17:20.727Z,74.24
2022-10-17T04:19:48.954Z,74.23
2022-10-17T04:22:15.535Z,74.30
2022-10-17T04:24:42.831Z,74.24
2022-10-17T04:27:09.836Z,74.36
2022-10-17T04:29:36.439Z,74.24
2022-10-17T04:32:03.522Z,73.97
2022-10-17T04:34:30.288Z,73.90
2022-10-17T04:36:56.860Z,74.11
2022-10-17T04:39:23.812Z,74.21
2022-10-17T04:41:50.572Z,74.35
2022-10-17T04:44:17.491Z,74.48
2022-10-17T04:46:44.135Z,74.56
2022-10-17T04:49:10.814Z,74.50
2022-10-17T04:51:38.335Z,74.56
2022-10-17T04:54:05.086Z,74.49
2022-10-17T04:56:31.703Z,74.44
2022-10-17T04:58:59.118Z,74.34
2022-10-17T05:01:26.186Z,74.42
2022-10-17T05:03:53.213Z,74.62
2022-10-17T05:06:22.838Z,74.68
2022-10-17T05:08:50.175Z,74.70
2022-10-17T05:11:28.216Z,74.79
2022-10-17T05:14:01.933Z,74.72
2022-10-17T05:16:29.894Z,74.86
2022-10-17T05:18:58.852Z,74.82
2022-10-17T05:21:27.318Z,74.98
2022-10-17T05:23:54.450Z,74.95
2022-10-17T05:26:22.160Z,75.01
2022-10-17T05:28:49.202Z,74.97
2022-10-17T05:31:15.895Z,75.12
2022-10-17T05:33:42.664Z,75.02
2022-10-17T05:36:10.041Z,75.10
2022-10-17T05:38:36.676Z,75.06
2022-10-17T05:41:04.962Z,74.94
2022-10-17T05:43:32.861Z,74.96
2022-10-17T05:46:03.611Z,75.10
2022-10-17T05:48:30.282Z,75.08
2022-10-17T05:51:02.192Z,75.22
2022-10-17T05:53:34.357Z,75.24
2022-10-17T05:56:04.071Z,75.20
2022-10-17T05:58:49.229Z,75.07
2022-10-17T06:01:17.127Z,75.08
2022-10-17T06:03:44.015Z,75.43
2022-10-17T06:06:13.019Z,75.45
2022-10-17T06:08:40.221Z,75.48
2022-10-17T06:11:10.068Z,75.50
2022-10-17T06:13:38.482Z,75.82
2022-10-17T06:16:06.052Z,75.93
2022-10-17T06:18:32.835Z,76.03
2022-10-17T06:21:05.502Z,76.15
2022-10-17T06:23:32.982Z,76.26
2022-10-17T06:26:01.103Z,76.41
2022-10-17T06:28:27.743Z,76.57
2022-10-17T06:30:54.537Z,76.88
2022-10-17T06:33:22.645Z,76.91
2022-10-17T06:35:53.843Z,76.96
2022-10-17T06:38:21.081Z,76.94
2022-10-17T06:40:47.719Z,77.09
2022-10-17T06:43:14.390Z,77.21
2022-10-17T06:45:41.565Z,77.08
2022-10-17T06:48:08.354Z,76.98
2022-10-17T06:50:35.000Z,76.96
2022-10-17T06:53:01.775Z,76.97
2022-10-17T06:55:28.600Z,76.97
2022-10-17T06:57:55.914Z,77.02
2022-10-17T07:00:23.486Z,76.87
2022-10-17T07:02:50.100Z,76.95
2022-10-17T07:05:18.591Z,77.01
2022-10-17T07:07:47.450Z,76.92
2022-10-17T07:10:16.420Z,77.07
2022-10-17T07:12:45.036Z,77.11
2022-10-17T07:15:12.237Z,76.97
2022-10-17T07:17:38.875Z,77.16
2022-10-17T07:20:06.000Z,77.24
2022-10-17T07:22:32.818Z,77.22
2022-10-17T07:24:59.449Z,77.21
2022-10-17T07:27:26.245Z,77.19
2022-10-17T07:29:53.100Z,77.26
2022-10-17T07:32:19.681Z,77.31
2022-10-17T07:34:46.273Z,77.31
2022-10-17T07:37:13.024Z,77.28
2022-10-17T07:39:39.611Z,77.37
2022-10-17T07:42:07.189Z,77.42
2022-10-17T07:44:34.975Z,77.35
2022-10-17T07:47:01.842Z,77.39
2022-10-17T07:49:28.804Z,77.50
2022-10-17T07:51:55.694Z,77.47
2022-10-17T07:54:22.547Z,77.49
2022-10-17T07:56:49.794Z,77.44
2022-10-17T07:59:19.648Z,77.25
2022-10-17T08:01:46.349Z,77.34
2022-10-17T08:04:12.948Z,77.28
2022-10-17T08:06:40.014Z,77.36
2022-10-17T08:09:06.669Z,77.32
2022-10-17T08:11:35.339Z,77.35
2022-10-17T08:14:02.257Z,77.24
2022-10-17T08:16:28.930Z,77.15
2022-10-17T08:18:55.553Z,77.23
2022-10-17T08:21:22.744Z,77.23
2022-10-17T08:23:52.644Z,77.19
2022-10-17T08:26:19.484Z,77.27
2022-10-17T08:28:47.438Z,77.26
2022-10-17T08:31:18.182Z,77.16
2022-10-17T08:33:45.250Z,77.01
2022-10-17T08:36:14.222Z,76.86
2022-10-17T08:38:43.514Z,77.06
2022-10-17T08:41:41.300Z,77.24
2022-10-17T08:44:28.192Z,77.10
2022-10-17T08:46:58.557Z,77.09
2022-10-17T08:49:41.668Z,77.08
2022-10-17T08:52:35.111Z,76.84
2022-10-17T08:55:01.894Z,76.64
2022-10-17T08:57:28.875Z,76.71
2022-10-17T08:59:56.601Z,76.75
2022-10-17T09:02:36.523Z,76.79
2022-10-17T09:05:30.291Z,76.72
2022-10-17T09:08:05.985Z,76.97
2022-10-17T09:10:55.250Z,77.07
2022-10-17T09:13:48.786Z,77.18
2022-10-17T09:16:46.549Z,77.19
2022-10-17T09:19:25.065Z,77.52
2022-10-17T09:21:59.650Z,77.61
2022-10-17T09:24:35.004Z,77.74
2022-10-17T09:27:02.779Z,77.75
2022-10-17T09:29:35.303Z,77.93
2022-10-17T09:32:13.583Z,77.74
2022-10-17T09:34:40.563Z,77.90
2022-10-17T09:37:13.811Z,78.03
2022-10-17T09:39:42.738Z,78.05
2022-10-17T09:42:13.841Z,77.82
2022-10-17T09:45:10.563Z,77.80
2022-10-17T09:47:40.841Z,77.75
2022-10-17T09:50:20.682Z,77.66
2022-10-17T09:52:50.114Z,77.60
2022-10-17T09:55:21.830Z,77.51
2022-10-17T09:57:55.252Z,77.32
2022-10-17T10:00:31.397Z,77.39
2022-10-17T10:03:25.958Z,77.31
2022-10-17T10:06:13.583Z,77.43
2022-10-17T10:08:59.422Z,77.36
2022-10-17T10:11:49.260Z,77.38
2022-10-17T10:14:45.178Z,77.36
2022-10-17T10:17:42.129Z,77.49
2022-10-17T10:20:30.450Z,77.72
2022-10-17T10:23:18.851Z,77.85
2022-10-17T10:25:51.329Z,77.96
2022-10-17T10:28:18.205Z,77.87
2022-10-17T10:30:50.702Z,77.73
2022-10-17T10:33:21.488Z,77.52
2022-10-17T10:35:58.226Z,77.48
2022-10-17T10:38:25.022Z,77.44
2022-10-17T10:41:00.967Z,77.44
2022-10-17T10:43:46.404Z,77.35
2022-10-17T10:46:27.841Z,77.03
2022-10-17T10:49:00.039Z,76.95
2022-10-17T10:51:29.045Z,77.22
2022-10-17T10:54:18.050Z,77.10
2022-10-17T10:56:51.269Z,76.92
2022-10-17T10:59:19.999Z,76.66
2022-10-17T11:02:09.725Z,76.59
2022-10-17T11:04:39.057Z,76.39
2022-10-17T11:07:16.466Z,76.44
2022-10-17T11:10:24.679Z,76.29
2022-10-17T11:13:03.102Z,76.02
2022-10-17T11:15:42.283Z,75.96
2022-10-17T11:18:42.474Z,75.84
2022-10-17T11:21:52.885Z,75.42
2022-10-17T11:24:27.521Z,75.57
2022-10-17T11:27:04.178Z,75.63
2022-10-17T11:29:35.177Z,75.68
2022-10-17T11:32:17.704Z,75.78
2022-10-17T11:34:48.093Z,75.84
2022-10-17T11:37:20.917Z,75.97
2022-10-17T11:40:02.100Z,75.86
2022-10-17T11:42:50.370Z,75.47
2022-10-17T11:45:21.267Z,75.45
2022-10-17T11:48:01.256Z,75.19
2022-10-17T11:53:23.660Z,74.62
2022-10-17T11:55:52.416Z,74.37
2022-10-17T11:58:38.948Z,73.87
2022-10-17T12:01:44.649Z,73.75
2022-10-17T12:04:49.754Z,73.51
2022-10-17T12:07:35.143Z,73.41
2022-10-17T12:10:24.824Z,73.32
2022-10-17T12:12:51.612Z,73.19
2022-10-17T12:15:24.687Z,73.29
2022-10-17T12:17:57.781Z,73.14
2022-10-17T12:20:30.353Z,73.06
2022-10-17T12:23:12.241Z,72.87
2022-10-17T12:25:56.936Z,72.86
2022-10-17T12:28:46.796Z,73.30
2022-10-17T12:31:16.901Z,73.40
2022-10-17T12:33:50.941Z,73.30
2022-10-17T12:36:26.730Z,73.22
2022-10-17T12:39:02.339Z,73.00
2022-10-17T12:41:49.355Z,72.84
2022-10-17T12:44:22.591Z,72.64
2022-10-17T12:47:04.514Z,72.90
2022-10-17T12:49:43.557Z,72.76
2022-10-17T12:52:31.739Z,72.73
2022-10-17T12:55:12.731Z,72.58
2022-10-17T12:57:56.185Z,72.32
2022-10-17T13:00:22.888Z,72.35
2022-10-17T13:02:54.115Z,72.24
2022-10-17T13:05:32.272Z,72.04
2022-10-17T13:08:03.225Z,72.12
2022-10-17T13:10:34.325Z,72.16
2022-10-17T13:13:10.422Z,71.91
2022-10-17T13:15:37.132Z,71.89
2022-10-17T13:18:04.109Z,71.75
2022-10-17T13:20:31.887Z,71.60
2022-10-17T13:22:59.350Z,71.53
2022-10-17T13:25:27.271Z,71.48
2022-10-17T13:28:05.859Z,71.45
2022-10-17T13:30:35.098Z,71.64
2022-10-17T13:33:03.162Z,71.44
2022-10-17T13:35:58.802Z,71.41
2022-10-17T13:38:28.488Z,71.34
2022-10-17T13:41:05.914Z,71.36
2022-10-17T13:43:38.297Z,71.25
2022-10-17T13:46:25.369Z,71.07
2022-10-17T13:48:53.620Z,71.09
2022-10-17T13:51:27.559Z,70.94
2022-10-17T13:53:54.753Z,70.95
2022-10-17T13:56:29.518Z,70.92
2022-10-17T13:59:00.663Z,70.80
2022-10-17T14:01:28.661Z,71.03
2022-10-17T14:04:07.710Z,70.69
2022-10-17T14:06:47.869Z,70.69
2022-10-17T14:09:24.864Z,70.75
2022-10-17T14:11:57.735Z,70.73
2022-10-17T14:14:25.797Z,70.87
2022-10-17T14:16:52.858Z,70.63
2022-10-17T14:19:36.656Z,70.64
2022-10-17T14:22:36.228Z,70.45
2022-10-17T14:25:04.151Z,70.49
2022-10-17T14:27:41.809Z,70.46
2022-10-17T14:30:55.620Z,70.42
2022-10-17T14:33:32.159Z,70.38
2022-10-17T14:36:01.352Z,70.21
2022-10-17T14:38:29.547Z,70.21
2022-10-17T14:41:15.689Z,70.16
2022-10-17T14:43:56.435Z,70.13
2022-10-17T14:46:23.918Z,70.12
2022-10-17T14:48:53.536Z,70.13
2022-10-17T14:51:20.239Z,70.11
2022-10-17T14:54:05.017Z,70.03
2022-10-17T14:56:52.197Z,70.05
2022-10-17T14:59:51.423Z,69.89
2022-10-17T15:02:11.598Z,70.18
2022-10-17T15:04:38.455Z,69.95
2022-10-17T15:07:05.321Z,70.02
2022-10-17T15:09:32.313Z,70.00
2022-10-17T15:12:03.746Z,70.13
2022-10-17T15:14:30.440Z,69.99
2022-10-17T15:16:57.122Z,70.20
2022-10-17T15:19:23.991Z,70.16
2022-10-17T15:21:50.632Z,69.95
2022-10-17T15:24:17.299Z,70.09
2022-10-17T15:26:44.050Z,69.98
2022-10-17T15:29:14.996Z,70.25
2022-10-17T15:31:41.723Z,70.29
2022-10-17T15:34:08.414Z,70.15
2022-10-17T15:36:47.561Z,70.14
2022-10-17T15:39:14.274Z,70.16
2022-10-17T15:41:41.033Z,70.13
2022-10-17T15:44:07.683Z,70.10
2022-10-17T15:46:35.563Z,70.13
2022-10-17T15:49:07.844Z,70.18
2022-10-17T15:51:34.699Z,70.14
2022-10-17T15:54:01.594Z,70.15
2022-10-17T15:56:35.732Z,70.36
2022-10-17T15:59:11.690Z,70.32
2022-10-17T16:01:38.980Z,70.32
2022-10-17T16:04:06.372Z,70.41
2022-10-17T16:06:33.088Z,70.48
2022-10-17T16:09:00.031Z,70.38
2022-10-17T16:11:38.672Z,70.50
2022-10-17T16:14:10.350Z,70.42
2022-10-17T16:16:37.176Z,70.33
2022-10-17T16:19:04.822Z,70.55
2022-10-17T16:21:37.597Z,70.61
2022-10-17T16:24:05.718Z,70.66
2022-10-17T16:26:32.510Z,70.83
2022-10-17T16:29:02.110Z,70.65
2022-10-17T16:31:32.785Z,70.65
2022-10-17T16:34:00.874Z,70.66
2022-10-17T16:36:53.268Z,70.72
2022-10-17T16:39:51.816Z,70.82
2022-10-17T16:42:20.281Z,71.05
2022-10-17T16:44:48.776Z,70.97
2022-10-17T16:47:17.315Z,71.03
2022-10-17T16:49:45.401Z,71.04
2022-10-17T16:52:12.666Z,71.12
2022-10-17T16:54:39.622Z,71.07
2022-10-17T16:57:16.293Z,71.25
2022-10-17T16:59:49.874Z,71.43
2022-10-17T17:02:20.486Z,71.33
2022-10-17T17:04:52.644Z,71.27
2022-10-17T17:07:36.822Z,71.32
2022-10-17T17:10:08.707Z,71.22
2022-10-17T17:12:36.169Z,71.43
2022-10-17T17:15:12.078Z,71.34
2022-10-17T17:17:51.272Z,71.55
2022-10-17T17:20:20.974Z,71.44
2022-10-17T17:22:51.372Z,71.44
2022-10-17T17:25:18.569Z,71.49
2022-10-17T17:29:00.768Z,71.59
2022-10-17T17:31:30.978Z,71.58
2022-10-17T17:33:59.938Z,71.73
2022-10-17T17:36:32.542Z,71.62
2022-10-17T17:39:03.757Z,71.45
2022-10-17T17:41:30.727Z,71.68
2022-10-17T17:44:00.620Z,71.59
2022-10-17T17:46:27.623Z,71.67
2022-10-17T17:48:54.799Z,71.46
2022-10-17T17:51:29.360Z,71.51
2022-10-17T17:53:57.140Z,71.36
2022-10-17T17:56:26.934Z,71.59
2022-10-17T17:59:00.113Z,71.37
2022-10-17T18:01:52.285Z,71.31
2022-10-17T18:08:10.557Z,71.46
2022-10-17T18:10:54.438Z,71.46
2022-10-17T18:13:21.419Z,71.38
2022-10-17T18:15:57.408Z,71.46
2022-10-17T18:18:28.452Z,71.43
2022-10-17T18:20:56.609Z,71.34
2022-10-17T18:23:23.529Z,71.38
2022-10-17T18:25:55.416Z,71.46
2022-10-17T18:28:23.224Z,71.43
2022-10-17T18:30:50.020Z,71.41
2022-10-17T18:33:16.770Z,71.33
2022-10-17T18:35:43.591Z,71.50
2022-10-17T18:38:11.641Z,71.55
2022-10-17T18:40:38.420Z,71.36
2022-10-17T18:43:05.178Z,71.38
2022-10-17T18:45:32.306Z,71.19
2022-10-17T18:47:59.055Z,71.16
2022-10-17T18:50:26.082Z,71.32
2022-10-17T18:52:52.999Z,71.29
2022-10-17T18:55:20.102Z,71.09
2022-10-17T18:57:50.517Z,71.15
2022-10-17T19:00:17.373Z,71.02
2022-10-17T19:02:44.252Z,71.16
2022-10-17T19:05:10.990Z,71.05
2022-10-17T19:07:38.810Z,71.11
2022-10-17T19:10:05.954Z,71.11
2022-10-17T19:12:32.792Z,71.12
2022-10-17T19:14:59.741Z,71.18
2022-10-17T19:17:26.673Z,71.16
2022-10-17T19:19:54.684Z,71.11
2022-10-17T19:22:22.154Z,71.03
2022-10-17T19:24:52.575Z,70.99
2022-10-17T19:27:24.722Z,70.97
2022-10-17T19:30:13.969Z,70.95
2022-10-17T19:32:40.847Z,71.24
2022-10-17T19:35:10.580Z,71.02
2022-10-17T19:37:50.292Z,71.10
2022-10-17T19:40:17.406Z,71.01
2022-10-17T19:42:44.308Z,71.10
2022-10-17T19:45:11.147Z,70.98
2022-10-17T19:47:39.216Z,70.87
2022-10-17T19:50:07.352Z,71.06
2022-10-17T19:52:34.387Z,71.01
2022-10-17T19:55:01.586Z,70.98
2022-10-17T19:57:28.381Z,71.24
2022-10-17T19:59:56.166Z,71.23
2022-10-17T20:02:23.265Z,71.15
2022-10-17T20:04:54.616Z,71.12
2022-10-17T20:07:33.439Z,71.04
2022-10-17T20:10:02.650Z,71.26
2022-10-17T20:12:30.018Z,71.18
2022-10-17T20:14:57.501Z,71.44
2022-10-17T20:17:24.608Z,71.50
2022-10-17T20:19:51.668Z,71.50
2022-10-17T20:22:18.722Z,71.53
2022-10-17T20:24:45.541Z,71.51
2022-10-17T20:27:12.290Z,71.46
2022-10-17T20:29:39.104Z,71.58
2022-10-17T20:32:06.593Z,71.74
2022-10-17T20:34:35.048Z,71.60
2022-10-17T20:37:03.398Z,71.61
2022-10-17T20:39:30.458Z,71.90
2022-10-17T20:41:57.533Z,71.61
2022-10-17T20:44:24.274Z,71.53
2022-10-17T20:47:02.268Z,71.73
2022-10-17T20:49:37.927Z,71.77
2022-10-17T20:52:06.513Z,71.84
2022-10-17T20:54:36.094Z,71.84
2022-10-17T20:57:20.676Z,71.77
2022-10-17T20:59:47.631Z,71.81
2022-10-17T21:02:15.680Z,71.90
2022-10-17T21:04:46.974Z,71.95
2022-10-17T21:07:15.271Z,72.05
2022-10-17T21:09:42.208Z,72.13
2022-10-17T21:12:11.132Z,71.95
2022-10-17T21:14:42.748Z,72.00
2022-10-17T21:17:12.041Z,71.94
2022-10-17T21:19:38.703Z,71.93
2022-10-17T21:22:05.398Z,71.98
2022-10-17T21:24:32.692Z,72.01
2022-10-17T21:26:59.750Z,72.10
2022-10-17T21:29:26.712Z,72.13
2022-10-17T21:31:53.560Z,72.00
2022-10-17T21:34:25.854Z,71.93
2022-10-17T21:36:54.534Z,72.08
2022-10-17T21:39:23.481Z,72.08
2022-10-17T21:41:51.483Z,72.21
2022-10-17T21:44:44.619Z,72.24
2022-10-17T21:47:28.133Z,72.04
2022-10-17T21:50:06.534Z,72.07
2022-10-17T21:52:39.045Z,71.97
2022-10-17T21:55:06.243Z,72.09
2022-10-17T21:57:33.194Z,71.96
2022-10-17T22:00:00.147Z,71.92
2022-10-17T22:02:29.966Z,71.99
2022-10-17T22:04:57.395Z,72.22
2022-10-17T22:07:24.327Z,72.21
2022-10-17T22:09:51.160Z,72.27
2022-10-17T22:12:19.574Z,72.18
2022-10-17T22:14:48.646Z,72.37
2022-10-17T22:17:15.701Z,72.41
2022-10-17T22:19:43.065Z,72.45
2022-10-17T22:22:09.717Z,72.50
2022-10-17T22:24:36.818Z,72.48
2022-10-17T22:27:03.643Z,72.43
2022-10-17T22:29:30.389Z,72.61
2022-10-17T22:31:57.129Z,72.48
2022-10-17T22:34:23.776Z,72.68
2022-10-17T22:36:50.478Z,72.64
2022-10-17T22:39:19.518Z,72.61
2022-10-17T22:41:48.762Z,72.73
2022-10-17T22:44:15.718Z,72.71
2022-10-17T22:46:44.299Z,72.78
2022-10-17T22:49:11.059Z,72.78
2022-10-17T22:51:37.808Z,72.69
2022-10-17T22:54:04.636Z,72.85
2022-10-17T22:56:31.536Z,72.58
2022-10-17T22:58:58.136Z,72.73
2022-10-17T23:01:25.117Z,72.77
2022-10-17T23:03:52.800Z,72.99
2022-10-17T23:06:21.193Z,72.98
2022-10-17T23:08:48.385Z,73.10
2022-10-17T23:11:15.550Z,72.96
2022-10-17T23:13:42.201Z,73.21
2022-10-17T23:16:09.324Z,73.12
2022-10-17T23:18:37.277Z,73.09
2022-10-17T23:21:04.435Z,73.04
2022-10-17T23:23:31.429Z,73.15
2022-10-17T23:26:09.923Z,73.21
2022-10-17T23:28:37.922Z,73.16
2022-10-17T23:31:22.708Z,73.15
2022-10-17T23:33:50.030Z,73.08
2022-10-17T23:36:19.215Z,73.17
2022-10-17T23:38:47.069Z,73.26
2022-10-17T23:41:14.705Z,73.09
2022-10-17T23:43:41.912Z,73.25
2022-10-17T23:46:09.211Z,73.30
2022-10-17T23:48:38.510Z,73.31
2022-10-17T23:51:06.978Z,73.35
2022-10-17T23:53:34.569Z,73.46
2022-10-17T23:56:01.294Z,73.37
2022-10-17T23:58:28.181Z,73.58
